Terminal Aerodrome Forecast
Issued by NWS

Home | Current Version | Previous Version | Text Only | Print | Product List | Glossary On
Versions: 1 2 3 4 5 6 7 8 9 10 11 12
000
FTUS42 TJSJ 291700
TAFIST
TAF
TIST 291722Z 2918/3018 13010KT P6SM FEW035
     FM292200 09008KT P6SM FEW030
     FM301300 14009KT P6SM FEW030
      AMD NOT SKED=

USA.gov is the U.S. government's official web portal to all federal, state and local government web resources and services.